Time;durP1;ratioP1;P1;durP2;ratioP2;P2;SDS_P1;SDS_P2;PMS_P1;PMS_P2;Temp;Humidity;BMP_temperature;BMP_pressure;BME280_temperature;BME280_humidity;BME280_pressure;Samples;Min_cycle;Max_cycle;Signal;HPM_P1;HPM_P2
2023/02/18 00:01:20;;;;;;;0.20;0.20;;;6.30;99.90;;;;;;4995459;28;20030;-75
2023/02/18 00:03:46;;;;;;;0.20;0.20;;;6.30;99.90;;;;;;4995530;28;20014;-74
2023/02/18 00:06:17;;;;;;;0.20;0.20;;;6.20;99.90;;;;;;4995580;28;20065;-74
2023/02/18 00:08:44;;;;;;;0.28;0.28;;;6.20;99.90;;;;;;4995264;28;20030;-74
2023/02/18 00:11:10;;;;;;;0.20;0.20;;;6.20;99.90;;;;;;4995421;28;20045;-75
2023/02/18 00:13:36;;;;;;;0.20;0.20;;;6.20;99.90;;;;;;4994377;28;20034;-74
2023/02/18 00:16:08;;;;;;;0.17;0.17;;;6.20;99.90;;;;;;5036318;23;20076;-75
2023/02/18 00:18:33;;;;;;;0.20;0.20;;;6.20;99.90;;;;;;5034723;28;20409;-75
2023/02/18 00:20:59;;;;;;;0.15;0.15;;;6.20;99.90;;;;;;5034433;28;20104;-74
2023/02/18 00:23:25;;;;;;;0.10;0.10;;;6.20;99.90;;;;;;5034840;28;20022;-74
2023/02/18 00:26:02;;;;;;;0.30;0.30;;;6.20;99.90;;;;;;5034804;28;20108;-74
2023/02/18 00:28:28;;;;;;;0.10;0.10;;;6.20;99.90;;;;;;5014924;28;20036;-74
2023/02/18 00:30:54;;;;;;;0.20;0.20;;;6.30;99.90;;;;;;5014909;28;20386;-74
2023/02/18 00:33:19;;;;;;;0.10;0.10;;;6.20;99.90;;;;;;5014874;28;20546;-74
2023/02/18 00:35:45;;;;;;;0.20;0.20;;;6.20;99.90;;;;;;5013248;28;20034;-75
2023/02/18 00:38:10;;;;;;;0.20;0.20;;;6.20;99.90;;;;;;5014440;28;20376;-74
2023/02/18 00:40:37;;;;;;;0.20;0.20;;;6.20;99.90;;;;;;5014477;28;20022;-74
2023/02/18 00:43:03;;;;;;;0.20;0.20;;;6.20;99.90;;;;;;5013153;28;20029;-74
2023/02/18 00:45:29;;;;;;;0.20;0.20;;;6.20;99.90;;;;;;5014306;28;20076;-74
2023/02/18 00:47:54;;;;;;;0.20;0.20;;;6.20;99.90;;;;;;5013944;28;20054;-74
2023/02/18 00:50:20;;;;;;;0.20;0.20;;;6.20;99.90;;;;;;5014065;28;20435;-74
2023/02/18 00:52:46;;;;;;;0.10;0.10;;;6.20;99.90;;;;;;5014069;28;20531;-74
2023/02/18 00:55:11;;;;;;;0.28;0.28;;;6.20;99.90;;;;;;5013985;28;20045;-74
2023/02/18 00:57:37;;;;;;;0.20;0.20;;;6.20;99.90;;;;;;5014094;28;20396;-74
2023/02/18 01:00:05;;;;;;;0.20;0.20;;;6.20;99.90;;;;;;5013860;28;20061;-74
2023/02/18 01:02:30;;;;;;;0.20;0.20;;;6.20;99.90;;;;;;5014041;28;20060;-74
2023/02/18 01:04:56;;;;;;;0.20;0.20;;;6.20;99.90;;;;;;5014314;28;20030;-74
2023/02/18 01:07:21;;;;;;;0.20;0.20;;;6.20;99.90;;;;;;5014106;28;20061;-75
2023/02/18 01:09:47;;;;;;;0.20;0.20;;;6.20;99.90;;;;;;5014161;28;20061;-74
2023/02/18 01:12:12;;;;;;;0.20;0.20;;;6.20;99.90;;;;;;5013912;28;20084;-74
2023/02/18 01:14:38;;;;;;;0.20;0.20;;;6.20;99.90;;;;;;5014202;28;20057;-74
2023/02/18 01:17:03;;;;;;;0.20;0.20;;;6.20;99.90;;;;;;5013864;28;20064;-74
2023/02/18 01:19:29;;;;;;;0.13;0.13;;;6.20;99.90;;;;;;5013770;28;20034;-74
2023/02/18 01:21:54;;;;;;;0.30;0.30;;;6.30;99.90;;;;;;5013787;28;20109;-75
2023/02/18 01:24:20;;;;;;;0.20;0.20;;;6.20;99.90;;;;;;5013722;28;20458;-74
2023/02/18 01:26:46;;;;;;;0.17;0.17;;;6.30;99.90;;;;;;5013625;28;20057;-74
2023/02/18 01:29:11;;;;;;;0.20;0.20;;;6.30;99.90;;;;;;5013723;28;20030;-74
2023/02/18 01:31:37;;;;;;;0.20;0.20;;;6.30;99.90;;;;;;5013681;28;20026;-74
2023/02/18 01:34:02;;;;;;;0.20;0.20;;;6.30;99.90;;;;;;5013907;28;20489;-74
2023/02/18 01:36:28;;;;;;;0.10;0.10;;;6.30;99.90;;;;;;5013221;28;20081;-74
2023/02/18 01:38:53;;;;;;;0.20;0.20;;;6.20;99.90;;;;;;5013863;28;20022;-74
2023/02/18 01:41:19;;;;;;;0.20;0.20;;;6.30;99.90;;;;;;5013476;28;20101;-74
2023/02/18 01:43:44;;;;;;;0.13;0.13;;;6.30;99.90;;;;;;5014127;28;20026;-74
2023/02/18 01:46:19;;;;;;;0.20;0.20;;;6.20;99.90;;;;;;5013390;28;20030;-75
2023/02/18 01:48:55;;;;;;;0.20;0.20;;;6.20;99.90;;;;;;5013403;28;20061;-74
2023/02/18 01:51:25;;;;;;;0.17;0.17;;;6.20;99.90;;;;;;5013291;28;20491;-74
2023/02/18 01:54:05;;;;;;;0.20;0.20;;;6.20;99.90;;;;;;5013247;28;20030;-74
2023/02/18 01:56:41;;;;;;;0.20;0.20;;;6.30;99.90;;;;;;5013133;28;20021;-74
2023/02/18 01:59:10;;;;;;;0.20;0.20;;;6.20;99.90;;;;;;5013697;28;20416;-74
2023/02/18 02:01:37;;;;;;;0.10;0.10;;;6.20;99.90;;;;;;5013219;28;20022;-74
2023/02/18 02:04:03;;;;;;;0.20;0.20;;;6.20;99.90;;;;;;5013155;28;20484;-75
2023/02/18 02:06:28;;;;;;;0.20;0.20;;;6.30;99.90;;;;;;5013026;28;20077;-74
2023/02/18 02:08:58;;;;;;;0.20;0.20;;;6.20;99.90;;;;;;5013085;28;20033;-74
2023/02/18 02:11:38;;;;;;;0.20;0.20;;;6.30;99.90;;;;;;5013159;28;20018;-74
2023/02/18 02:14:35;;;;;;;0.20;0.20;;;6.20;99.90;;;;;;5011918;28;20062;-74
2023/02/18 02:17:12;;;;;;;0.10;0.10;;;6.20;99.90;;;;;;5004608;28;20076;-74
2023/02/18 02:20:23;;;;;;;0.20;0.20;;;6.10;99.90;;;;;;5011932;28;20447;-74
2023/02/18 02:23:20;;;;;;;0.20;0.20;;;6.20;99.90;;;;;;5013088;28;20472;-75
2023/02/18 02:25:57;;;;;;;0.20;0.20;;;6.10;99.90;;;;;;5013427;28;20072;-74
2023/02/18 02:28:23;;;;;;;0.10;0.10;;;6.10;99.90;;;;;;5012924;28;20026;-74
2023/02/18 02:31:24;;;;;;;0.20;0.20;;;6.10;99.90;;;;;;5012663;28;20030;-74
2023/02/18 02:34:27;;;;;;;0.20;0.20;;;6.10;99.90;;;;;;5013066;28;20030;-75
2023/02/18 02:37:24;;;;;;;0.20;0.20;;;6.10;99.90;;;;;;5014119;28;20022;-74
2023/02/18 02:40:08;;;;;;;0.20;0.20;;;6.00;99.90;;;;;;5017061;28;20513;-74
2023/02/18 02:42:54;;;;;;;0.25;0.25;;;6.00;99.90;;;;;;5017017;28;20022;-74
2023/02/18 02:45:37;;;;;;;0.40;0.40;;;5.90;99.90;;;;;;5016638;28;20048;-74
2023/02/18 02:48:27;;;;;;;0.20;0.20;;;5.90;99.90;;;;;;5016809;28;20076;-74
2023/02/18 02:51:11;;;;;;;0.20;0.20;;;5.90;99.90;;;;;;5016813;28;20026;-74
2023/02/18 02:53:40;;;;;;;0.20;0.20;;;5.90;99.90;;;;;;5016511;28;20022;-75
2023/02/18 02:56:06;;;;;;;0.20;0.20;;;5.90;99.90;;;;;;5016227;28;20099;-74
2023/02/18 02:58:31;;;;;;;0.20;0.20;;;5.90;99.90;;;;;;5016952;28;20527;-74
2023/02/18 03:01:23;;;;;;;0.20;0.20;;;6.00;99.90;;;;;;5016056;28;20018;-74
2023/02/18 03:04:18;;;;;;;0.20;0.20;;;6.00;99.90;;;;;;5016625;28;20100;-74
2023/02/18 03:07:21;;;;;;;0.10;0.10;;;6.10;99.90;;;;;;5016539;28;20420;-74
2023/02/18 03:10:24;;;;;;;0.20;0.20;;;6.10;99.90;;;;;;4985617;28;20034;-74
2023/02/18 03:13:08;;;;;;;0.20;0.20;;;6.10;99.90;;;;;;5016163;28;20103;-74
2023/02/18 03:15:42;;;;;;;0.15;0.15;;;6.10;99.90;;;;;;5016053;28;20497;-74
2023/02/18 03:18:30;;;;;;;0.20;0.20;;;6.20;99.90;;;;;;5015963;28;20038;-74
2023/02/18 03:21:01;;;;;;;0.20;0.20;;;6.20;99.90;;;;;;5016323;28;20426;-74
2023/02/18 03:23:31;;;;;;;0.20;0.20;;;6.20;99.90;;;;;;5015953;28;20043;-74
2023/02/18 03:25:58;;;;;;;0.10;0.10;;;6.20;99.90;;;;;;5014577;28;20033;-74
2023/02/18 03:28:27;;;;;;;0.55;0.55;;;6.20;99.90;;;;;;5013392;28;20032;-74
2023/02/18 03:30:57;;;;;;;0.30;0.30;;;6.20;99.90;;;;;;5015632;28;20113;-74
2023/02/18 03:33:28;;;;;;;0.88;0.88;;;6.20;99.90;;;;;;5016064;28;20026;-74
2023/02/18 03:35:56;;;;;;;2.28;2.08;;;6.30;99.90;;;;;;5015853;28;20026;-74
2023/02/18 03:38:39;;;;;;;1.20;1.17;;;6.30;99.90;;;;;;5014406;28;20022;-74
2023/02/18 03:41:05;;;;;;;3.00;2.80;;;6.30;99.90;;;;;;5016236;28;20440;-74
2023/02/18 03:43:31;;;;;;;0.82;0.82;;;6.30;99.90;;;;;;5015536;28;20105;-74
2023/02/18 03:45:57;;;;;;;1.35;1.25;;;6.30;99.90;;;;;;5015700;28;20036;-74
2023/02/18 03:48:22;;;;;;;0.20;0.20;;;6.40;99.90;;;;;;5014606;28;20149;-74
2023/02/18 03:50:48;;;;;;;0.57;0.57;;;6.40;99.90;;;;;;5015984;28;20046;-74
2023/02/18 03:53:13;;;;;;;1.45;1.33;;;6.40;99.90;;;;;;5013986;28;20030;-74
2023/02/18 03:55:39;;;;;;;1.80;1.42;;;6.40;99.90;;;;;;5015188;28;20115;-74
2023/02/18 03:58:05;;;;;;;2.80;2.58;;;6.40;99.90;;;;;;5013860;28;20105;-74
2023/02/18 04:00:30;;;;;;;0.30;0.30;;;6.50;99.90;;;;;;5014995;28;20061;-74
2023/02/18 04:02:56;;;;;;;2.30;1.75;;;6.40;99.90;;;;;;5014933;28;20106;-74
2023/02/18 04:05:21;;;;;;;1.20;0.90;;;6.50;99.90;;;;;;5012589;28;20451;-74
2023/02/18 04:07:47;;;;;;;0.77;0.77;;;6.50;99.90;;;;;;5012261;28;20036;-74
2023/02/18 04:10:12;;;;;;;3.72;0.85;;;6.50;99.90;;;;;;5014902;28;20100;-74
2023/02/18 04:12:38;;;;;;;1.02;1.00;;;6.50;99.90;;;;;;5017934;28;20022;-74
2023/02/18 04:15:04;;;;;;;1.15;1.15;;;6.50;99.90;;;;;;5014936;28;20060;-75
2023/02/18 04:17:31;;;;;;;0.80;0.80;;;6.50;99.90;;;;;;5014764;28;20053;-75
2023/02/18 04:19:56;;;;;;;0.82;0.73;;;6.50;99.90;;;;;;5014999;28;20546;-74
2023/02/18 04:22:22;;;;;;;0.57;0.45;;;6.50;99.90;;;;;;5014848;28;20109;-74
2023/02/18 04:24:47;;;;;;;4.47;1.52;;;6.50;99.90;;;;;;5012810;28;20080;-75
2023/02/18 04:27:13;;;;;;;1.65;1.55;;;6.50;99.90;;;;;;5014583;28;20084;-75
2023/02/18 04:29:38;;;;;;;1.30;1.10;;;6.50;99.90;;;;;;5014832;28;20030;-75
2023/02/18 04:32:04;;;;;;;4.88;3.10;;;6.50;99.90;;;;;;5013396;28;20034;-75
2023/02/18 04:34:29;;;;;;;3.13;2.20;;;6.50;99.90;;;;;;5014628;28;20044;-74
2023/02/18 04:36:56;;;;;;;8.15;2.55;;;6.50;99.90;;;;;;5014670;28;20427;-75
2023/02/18 04:39:21;;;;;;;1.83;1.67;;;6.40;99.90;;;;;;5013219;28;20406;-75
2023/02/18 04:41:47;;;;;;;4.78;2.15;;;6.50;99.90;;;;;;5014469;28;20022;-75
2023/02/18 04:44:12;;;;;;;2.25;2.08;;;6.40;99.90;;;;;;5014406;28;20033;-75
2023/02/18 04:46:38;;;;;;;3.90;3.05;;;6.40;99.90;;;;;;5014505;28;20026;-75
2023/02/18 04:49:03;;;;;;;7.57;5.53;;;6.40;99.90;;;;;;5014346;28;20040;-75
2023/02/18 04:51:29;;;;;;;2.05;1.50;;;6.40;99.90;;;;;;5014578;28;20104;-75
2023/02/18 04:53:55;;;;;;;0.10;0.10;;;6.50;99.90;;;;;;5014553;28;20033;-75
2023/02/18 04:56:20;;;;;;;6.65;1.95;;;6.50;99.90;;;;;;5014276;28;20081;-75
2023/02/18 04:58:46;;;;;;;1.85;1.75;;;6.50;99.90;;;;;;5014140;28;20026;-74
2023/02/18 05:01:11;;;;;;;10.38;2.20;;;6.40;99.90;;;;;;5013862;28;20084;-74
2023/02/18 05:03:37;;;;;;;4.15;0.80;;;6.40;99.90;;;;;;5013857;28;20057;-74
2023/02/18 05:06:03;;;;;;;2.25;2.13;;;6.50;99.90;;;;;;5014257;28;20065;-75
2023/02/18 05:08:28;;;;;;;0.50;0.50;;;6.40;99.90;;;;;;5012800;28;20026;-75
2023/02/18 05:10:54;;;;;;;0.47;0.47;;;6.30;99.90;;;;;;5013992;28;20030;-75
2023/02/18 05:13:21;;;;;;;1.40;0.68;;;6.30;99.90;;;;;;5013954;28;20037;-74
2023/02/18 05:15:47;;;;;;;0.77;0.77;;;6.20;99.90;;;;;;5013954;28;20072;-76
2023/02/18 05:18:13;;;;;;;0.60;0.57;;;6.30;99.90;;;;;;5013700;28;20031;-76
2023/02/18 05:20:38;;;;;;;0.45;0.45;;;6.20;99.90;;;;;;5013826;28;20022;-76
2023/02/18 05:23:04;;;;;;;1.52;1.40;;;6.20;99.90;;;;;;5013784;28;20033;-76
2023/02/18 05:25:29;;;;;;;0.52;0.45;;;6.20;99.90;;;;;;5013893;28;20390;-76
2023/02/18 05:27:55;;;;;;;0.30;0.30;;;6.20;99.90;;;;;;5013705;28;20172;-76
2023/02/18 05:30:20;;;;;;;1.30;1.13;;;6.10;99.90;;;;;;5013949;28;20030;-76
2023/02/18 05:32:46;;;;;;;2.58;1.80;;;6.10;99.90;;;;;;5013655;28;20037;-76
2023/02/18 05:35:12;;;;;;;1.35;0.65;;;6.10;99.90;;;;;;5007561;28;20026;-76
2023/02/18 05:37:38;;;;;;;0.75;0.55;;;6.10;99.90;;;;;;4992551;28;20113;-76
2023/02/18 05:40:05;;;;;;;0.17;0.17;;;6.10;99.90;;;;;;4993754;28;20488;-76
2023/02/18 05:42:31;;;;;;;3.42;2.53;;;6.10;99.90;;;;;;4993646;28;20030;-76
2023/02/18 05:44:57;;;;;;;0.10;0.10;;;6.10;99.90;;;;;;5006389;28;20545;-76
2023/02/18 05:47:23;;;;;;;0.20;0.20;;;6.00;99.90;;;;;;4993851;28;20101;-76
2023/02/18 05:49:49;;;;;;;1.77;1.67;;;6.00;99.90;;;;;;4993533;28;20081;-76
2023/02/18 05:52:15;;;;;;;3.67;0.93;;;6.00;99.90;;;;;;4992321;28;20037;-76
2023/02/18 05:54:40;;;;;;;6.28;5.63;;;6.00;99.90;;;;;;4993694;28;20030;-76
2023/02/18 05:57:06;;;;;;;0.43;0.43;;;5.90;99.90;;;;;;5007630;28;20030;-76
2023/02/18 05:59:32;;;;;;;0.20;0.20;;;5.90;99.90;;;;;;5013430;28;20026;-75
2023/02/18 06:01:58;;;;;;;0.50;0.50;;;5.90;99.90;;;;;;5013158;28;20040;-75
2023/02/18 06:04:24;;;;;;;0.20;0.20;;;5.80;99.90;;;;;;5013178;28;20025;-75
2023/02/18 06:06:49;;;;;;;2.60;1.67;;;5.80;99.90;;;;;;5012905;28;20026;-74
2023/02/18 06:09:15;;;;;;;0.20;0.20;;;5.80;99.90;;;;;;5013079;28;20029;-75
2023/02/18 06:11:41;;;;;;;2.50;2.30;;;5.70;99.90;;;;;;5013895;28;20549;-74
2023/02/18 06:14:07;;;;;;;2.25;2.05;;;5.70;99.90;;;;;;5017282;28;20033;-72
2023/02/18 06:16:32;;;;;;;1.45;1.35;;;5.70;99.90;;;;;;5130158;23;20026;-74
2023/02/18 06:18:58;;;;;;;0.82;0.82;;;5.60;99.90;;;;;;4997409;28;20038;-74
2023/02/18 06:21:23;;;;;;;1.58;1.23;;;5.60;99.90;;;;;;4996051;28;20480;-74
2023/02/18 06:23:49;;;;;;;0.55;0.55;;;5.60;99.90;;;;;;4997117;28;20446;-75
2023/02/18 06:26:15;;;;;;;0.10;0.10;;;5.60;99.90;;;;;;4996764;28;20037;-75
2023/02/18 06:28:40;;;;;;;1.02;0.68;;;5.60;99.90;;;;;;4985560;28;20027;-74
2023/02/18 06:31:06;;;;;;;3.22;3.00;;;5.50;99.90;;;;;;4969372;28;20039;-74
2023/02/18 06:33:32;;;;;;;0.40;0.40;;;5.50;99.90;;;;;;4971975;28;20482;-74
2023/02/18 06:36:07;;;;;;;0.80;0.50;;;5.40;99.90;;;;;;4968461;28;20035;-74
2023/02/18 06:38:34;;;;;;;0.47;0.47;;;5.40;99.90;;;;;;4965403;28;20027;-74
2023/02/18 06:41:00;;;;;;;3.20;0.40;;;5.30;99.90;;;;;;4969322;28;20038;-74
2023/02/18 06:43:25;;;;;;;0.10;0.10;;;5.30;99.90;;;;;;4968931;28;20027;-74
2023/02/18 06:45:51;;;;;;;0.60;0.60;;;5.30;99.90;;;;;;4965997;28;20127;-74
2023/02/18 06:48:17;;;;;;;0.35;0.20;;;5.20;99.90;;;;;;4981540;28;20027;-74
2023/02/18 06:50:43;;;;;;;1.05;0.65;;;5.20;99.90;;;;;;4965562;28;20046;-74
2023/02/18 06:53:09;;;;;;;0.10;0.10;;;5.20;99.90;;;;;;4971228;28;20150;-74
2023/02/18 06:55:34;;;;;;;1.55;0.98;;;5.20;99.90;;;;;;4966896;28;20113;-74
2023/02/18 06:58:00;;;;;;;1.45;1.05;;;5.20;99.90;;;;;;4971816;28;20100;-75
2023/02/18 07:00:25;;;;;;;1.55;1.05;;;5.20;99.90;;;;;;4977019;28;20034;-74
2023/02/18 07:02:51;;;;;;;2.05;1.60;;;5.20;99.90;;;;;;4990269;28;20022;-74
2023/02/18 07:05:16;;;;;;;0.20;0.20;;;5.20;99.90;;;;;;4996647;28;20014;-75
2023/02/18 07:07:42;;;;;;;1.13;1.05;;;5.10;99.90;;;;;;4996076;28;20030;-74
2023/02/18 07:10:09;;;;;;;0.90;0.68;;;5.10;99.90;;;;;;4984168;28;20031;-74
2023/02/18 07:12:35;;;;;;;1.77;1.65;;;5.10;99.90;;;;;;4989246;28;20037;-74
2023/02/18 07:15:00;;;;;;;0.20;0.20;;;5.10;99.90;;;;;;4978678;28;20022;-74
2023/02/18 07:17:27;;;;;;;2.28;1.05;;;5.10;99.90;;;;;;4975690;28;20039;-74
2023/02/18 07:19:54;;;;;;;0.77;0.77;;;5.10;99.90;;;;;;4996040;28;20487;-74
2023/02/18 07:22:20;;;;;;;1.48;1.38;;;5.10;99.90;;;;;;4995820;28;20022;-74
2023/02/18 07:24:45;;;;;;;0.10;0.10;;;5.10;99.90;;;;;;4996220;28;20476;-74
2023/02/18 07:27:11;;;;;;;1.10;0.55;;;5.00;99.90;;;;;;4995830;28;20034;-73
2023/02/18 07:29:37;;;;;;;0.60;0.38;;;5.10;99.90;;;;;;4995885;28;20483;-73
2023/02/18 07:32:02;;;;;;;0.63;0.28;;;5.10;99.90;;;;;;4996123;28;20031;-73
2023/02/18 07:34:28;;;;;;;0.10;0.10;;;5.10;99.90;;;;;;4995801;28;20034;-73
2023/02/18 07:36:53;;;;;;;0.10;0.10;;;5.00;99.90;;;;;;4995746;28;20030;-75
2023/02/18 07:39:19;;;;;;;1.13;0.55;;;5.00;99.90;;;;;;4996639;28;20100;-74
2023/02/18 07:41:46;;;;;;;11.45;9.55;;;5.00;99.90;;;;;;4994514;28;20018;-74
2023/02/18 07:44:12;;;;;;;4.38;2.72;;;5.00;99.90;;;;;;4995375;28;20015;-74
2023/02/18 07:46:41;;;;;;;0.20;0.20;;;5.00;99.90;;;;;;5010401;28;20052;-74
2023/02/18 07:49:07;;;;;;;0.70;0.47;;;5.00;99.90;;;;;;4995787;28;20466;-74
2023/02/18 07:51:33;;;;;;;12.57;11.07;;;5.00;99.90;;;;;;4996099;28;20034;-74
2023/02/18 07:53:59;;;;;;;1.75;1.58;;;5.00;99.90;;;;;;4995935;28;20030;-74
2023/02/18 07:56:24;;;;;;;4.32;4.03;;;5.10;99.90;;;;;;4980272;28;20027;-74
2023/02/18 07:58:50;;;;;;;5.78;3.25;;;5.10;99.90;;;;;;4975244;28;20031;-74
2023/02/18 08:01:15;;;;;;;4.15;3.88;;;5.10;99.90;;;;;;4969118;28;20033;-75
2023/02/18 08:03:41;;;;;;;0.65;0.55;;;5.10;99.90;;;;;;4975694;28;20033;-74
2023/02/18 08:06:07;;;;;;;0.65;0.40;;;5.10;99.90;;;;;;4985369;28;20069;-74
2023/02/18 08:08:33;;;;;;;4.30;2.92;;;5.20;99.90;;;;;;5010036;28;20054;-73
2023/02/18 08:11:06;;;;;;;18.20;16.73;;;5.20;99.90;;;;;;4994884;28;20089;-74
2023/02/18 08:13:32;;;;;;;8.98;8.38;;;5.10;99.90;;;;;;4995246;28;20033;-75
2023/02/18 08:15:58;;;;;;;0.20;0.20;;;5.10;99.90;;;;;;4994747;28;20026;-74
2023/02/18 08:18:25;;;;;;;0.10;0.10;;;5.10;99.90;;;;;;4995056;28;20041;-74
2023/02/18 08:20:51;;;;;;;0.20;0.20;;;5.10;99.90;;;;;;4995188;28;20030;-74
2023/02/18 08:23:21;;;;;;;0.13;0.13;;;5.10;99.90;;;;;;4993452;28;20480;-74
2023/02/18 08:25:51;;;;;;;0.10;0.10;;;5.20;99.90;;;;;;4994955;28;20042;-74
2023/02/18 08:28:19;;;;;;;0.20;0.20;;;5.20;99.90;;;;;;4994671;28;20034;-75
2023/02/18 08:30:49;;;;;;;0.10;0.10;;;5.20;99.90;;;;;;4969407;28;20035;-75
2023/02/18 08:33:16;;;;;;;0.10;0.10;;;5.30;99.90;;;;;;4971308;28;20027;-75
2023/02/18 08:35:41;;;;;;;0.20;0.20;;;5.30;99.90;;;;;;4976598;28;20041;-75
2023/02/18 08:38:07;;;;;;;0.13;0.13;;;5.20;99.90;;;;;;4994837;28;20022;-74
2023/02/18 08:40:33;;;;;;;0.10;0.10;;;5.20;99.90;;;;;;4994758;28;20102;-74
2023/02/18 08:42:58;;;;;;;0.55;0.55;;;5.20;99.90;;;;;;4990818;28;20030;-75
2023/02/18 08:45:24;;;;;;;1.85;1.75;;;5.20;99.90;;;;;;4975810;28;20074;-74
2023/02/18 08:47:50;;;;;;;0.10;0.10;;;5.20;99.90;;;;;;4975210;28;20079;-74
2023/02/18 08:50:15;;;;;;;6.75;6.22;;;5.20;99.90;;;;;;4975865;28;20097;-74
2023/02/18 08:52:41;;;;;;;0.20;0.20;;;5.10;99.90;;;;;;4964838;28;20058;-74
2023/02/18 08:55:07;;;;;;;0.20;0.20;;;5.10;99.90;;;;;;4966574;28;20115;-74
2023/02/18 08:57:32;;;;;;;0.28;0.20;;;5.10;99.90;;;;;;4962140;28;20378;-74
2023/02/18 08:59:58;;;;;;;0.63;0.43;;;5.10;99.90;;;;;;4963473;28;20034;-73
2023/02/18 09:02:23;;;;;;;4.93;4.57;;;5.10;99.90;;;;;;4966626;28;20040;-73
2023/02/18 09:04:49;;;;;;;1.65;1.20;;;5.00;99.90;;;;;;4970470;28;20027;-73
2023/02/18 09:07:15;;;;;;;0.30;0.10;;;5.00;99.90;;;;;;4963710;28;20058;-73
2023/02/18 09:09:40;;;;;;;6.15;2.22;;;4.90;99.90;;;;;;4970504;28;20039;-74
2023/02/18 09:12:07;;;;;;;16.90;15.63;;;4.80;99.90;;;;;;4987354;28;20077;-74
2023/02/18 09:14:32;;;;;;;11.70;10.80;;;4.80;99.90;;;;;;4977944;28;20064;-74
2023/02/18 09:16:58;;;;;;;0.10;0.10;;;4.70;99.90;;;;;;4988041;28;20061;-74
2023/02/18 09:19:24;;;;;;;0.20;0.20;;;4.60;99.90;;;;;;5008694;28;20026;-74
2023/02/18 09:21:51;;;;;;;0.47;0.47;;;4.50;99.90;;;;;;4993939;28;20092;-73
2023/02/18 09:24:20;;;;;;;10.48;9.48;;;4.40;99.90;;;;;;4993616;28;20064;-73
2023/02/18 09:26:46;;;;;;;0.20;0.20;;;4.50;99.90;;;;;;4993924;28;20030;-73
2023/02/18 09:29:11;;;;;;;0.30;0.20;;;4.40;99.90;;;;;;4993798;28;20503;-74
2023/02/18 09:31:38;;;;;;;0.20;0.20;;;4.40;99.90;;;;;;4993488;28;20030;-73
2023/02/18 09:34:04;;;;;;;0.47;0.47;;;4.40;99.90;;;;;;4993938;28;20022;-73
2023/02/18 09:36:30;;;;;;;0.45;0.45;;;4.30;99.90;;;;;;4993381;28;20113;-74
2023/02/18 09:38:55;;;;;;;0.20;0.20;;;4.30;99.90;;;;;;4993805;28;20118;-73
2023/02/18 09:41:46;;;;;;;0.30;0.30;;;4.30;99.90;;;;;;4992119;28;20030;-74
2023/02/18 09:44:25;;;;;;;0.10;0.10;;;4.20;99.90;;;;;;4993765;28;20018;-74
2023/02/18 09:47:18;;;;;;;0.35;0.35;;;4.20;99.90;;;;;;4992730;28;20029;-74
2023/02/18 09:49:48;;;;;;;0.20;0.20;;;4.20;99.90;;;;;;4993665;28;20026;-74
2023/02/18 09:52:22;;;;;;;0.13;0.13;;;4.30;99.90;;;;;;5008675;28;20030;-74
2023/02/18 09:54:51;;;;;;;0.10;0.10;;;4.40;99.90;;;;;;4973412;28;20030;-73
2023/02/18 09:57:40;;;;;;;0.20;0.20;;;4.50;99.90;;;;;;4956813;28;20114;-74
2023/02/18 10:00:39;;;;;;;0.30;0.30;;;4.60;99.90;;;;;;4954613;29;20026;-74
2023/02/18 10:03:20;;;;;;;0.20;0.20;;;4.50;99.90;;;;;;4954451;29;20046;-74
2023/02/18 10:06:04;;;;;;;0.20;0.20;;;4.60;99.90;;;;;;4978865;28;20030;-74
2023/02/18 10:08:41;;;;;;;0.10;0.10;;;4.60;99.90;;;;;;4993436;28;20092;-73
2023/02/18 10:11:27;;;;;;;0.10;0.10;;;4.60;99.90;;;;;;4993752;28;20056;-74
2023/02/18 10:13:54;;;;;;;8.90;7.15;;;4.60;99.90;;;;;;5008271;28;20033;-74
2023/02/18 10:16:22;;;;;;;8.50;7.85;;;4.50;99.90;;;;;;4993006;28;20045;-74
2023/02/18 10:18:50;;;;;;;0.10;0.10;;;4.60;99.90;;;;;;4993343;28;20026;-74
2023/02/18 10:21:23;;;;;;;0.10;0.10;;;4.60;99.90;;;;;;4993129;28;20026;-74
2023/02/18 10:24:12;;;;;;;0.30;0.20;;;4.70;99.90;;;;;;5008358;28;20026;-74
2023/02/18 10:26:39;;;;;;;1.90;0.77;;;4.80;99.90;;;;;;4992925;28;20109;-74
2023/02/18 10:29:12;;;;;;;1.75;0.88;;;4.80;99.90;;;;;;4993497;28;20053;-74
2023/02/18 10:31:42;;;;;;;0.20;0.20;;;4.80;99.90;;;;;;4993353;28;20057;-74
2023/02/18 10:34:40;;;;;;;0.20;0.20;;;4.80;99.90;;;;;;4993121;28;20023;-74
2023/02/18 10:37:25;;;;;;;0.30;0.20;;;4.80;99.90;;;;;;5008273;28;20408;-74
2023/02/18 10:40:29;;;;;;;8.35;7.72;;;4.80;99.90;;;;;;4991909;28;20387;-74
2023/02/18 10:43:15;;;;;;;3.25;1.30;;;4.90;99.90;;;;;;4977848;28;20105;-74
2023/02/18 10:46:03;;;;;;;1.15;1.15;;;4.90;99.90;;;;;;4993040;28;20026;-74
2023/02/18 10:48:58;;;;;;;0.20;0.20;;;4.90;99.90;;;;;;4987087;28;20390;-74
2023/02/18 10:51:28;;;;;;;0.10;0.10;;;5.00;99.90;;;;;;4987956;28;20403;-73
2023/02/18 10:53:54;;;;;;;0.20;0.20;;;4.90;99.90;;;;;;4972533;28;20019;-74
2023/02/18 10:56:37;;;;;;;0.13;0.13;;;4.80;99.90;;;;;;4970714;28;20054;-73
2023/02/18 10:59:20;;;;;;;0.20;0.20;;;4.70;99.90;;;;;;4975382;28;20480;-74
2023/02/18 11:01:57;;;;;;;0.20;0.20;;;4.60;99.90;;;;;;4958171;29;20480;-74
2023/02/18 11:04:33;;;;;;;0.20;0.20;;;4.60;99.90;;;;;;4957885;29;20524;-74
2023/02/18 11:07:03;;;;;;;0.22;0.22;;;4.50;99.90;;;;;;4957942;29;20106;-74
2023/02/18 11:09:33;;;;;;;0.20;0.20;;;4.40;99.90;;;;;;4957728;29;20027;-74
2023/02/18 11:12:02;;;;;;;0.10;0.10;;;4.40;99.90;;;;;;4958244;29;20034;-74
2023/02/18 11:14:46;;;;;;;9.73;2.95;;;4.40;99.90;;;;;;4968282;28;20105;-73
2023/02/18 11:17:28;;;;;;;0.20;0.20;;;4.30;99.90;;;;;;4996194;28;20067;-73
2023/02/18 11:19:59;;;;;;;0.20;0.20;;;4.30;99.90;;;;;;4996114;28;20022;-73
2023/02/18 11:22:28;;;;;;;3.70;3.50;;;4.20;99.90;;;;;;4995139;28;20019;-73
2023/02/18 11:24:57;;;;;;;0.30;0.30;;;4.20;99.90;;;;;;4995861;28;20475;-73
2023/02/18 11:27:24;;;;;;;1.08;1.05;;;4.20;99.90;;;;;;4996012;28;20116;-74
2023/02/18 11:29:53;;;;;;;0.55;0.52;;;4.20;99.90;;;;;;4995762;28;20033;-74
2023/02/18 11:32:18;;;;;;;0.10;0.10;;;4.10;99.90;;;;;;4996238;28;20030;-74
2023/02/18 11:34:44;;;;;;;0.52;0.30;;;4.00;99.90;;;;;;4995954;28;20030;-74
2023/02/18 11:37:19;;;;;;;2.63;2.38;;;3.90;99.90;;;;;;4995855;28;20038;-74
2023/02/18 11:39:48;;;;;;;1.15;1.13;;;3.90;99.90;;;;;;4996047;28;20145;-73
2023/02/18 11:42:16;;;;;;;3.28;1.38;;;3.80;99.90;;;;;;5010507;28;20023;-73
2023/02/18 11:44:55;;;;;;;0.20;0.20;;;3.70;99.90;;;;;;4995820;28;20034;-73
2023/02/18 11:47:29;;;;;;;0.20;0.20;;;3.60;99.90;;;;;;4995556;28;20027;-73
2023/02/18 11:50:14;;;;;;;1.20;0.47;;;3.60;99.90;;;;;;4990293;28;20129;-73
2023/02/18 11:52:45;;;;;;;0.10;0.10;;;3.50;99.90;;;;;;4965216;28;20027;-74
2023/02/18 11:55:26;;;;;;;0.30;0.20;;;3.60;99.90;;;;;;4962367;28;20032;-73
2023/02/18 11:57:57;;;;;;;5.80;1.23;;;3.70;99.90;;;;;;4995412;28;20041;-74
2023/02/18 12:00:42;;;;;;;1.65;1.15;;;3.70;99.90;;;;;;5010297;28;20030;-74
2023/02/18 12:03:27;;;;;;;0.22;0.22;;;3.70;99.90;;;;;;4995963;28;20379;-74
2023/02/18 12:05:55;;;;;;;1.50;1.40;;;3.70;99.90;;;;;;4995201;28;20022;-74
2023/02/18 12:08:30;;;;;;;0.20;0.20;;;3.70;99.90;;;;;;5010225;28;20073;-74
2023/02/18 12:11:20;;;;;;;0.20;0.20;;;3.70;99.90;;;;;;4994586;28;20030;-74
2023/02/18 12:13:57;;;;;;;0.17;0.17;;;3.70;99.90;;;;;;4995264;28;20484;-73
2023/02/18 12:16:52;;;;;;;0.20;0.20;;;3.60;99.90;;;;;;4995093;28;20034;-73
2023/02/18 12:19:47;;;;;;;21.58;2.58;;;3.60;99.90;;;;;;4978740;28;20031;-74
2023/02/18 12:22:35;;;;;;;0.20;0.20;;;3.70;99.90;;;;;;4972431;28;20032;-74
2023/02/18 12:25:06;;;;;;;0.40;0.30;;;3.90;99.90;;;;;;4991167;28;20109;-74
2023/02/18 12:27:50;;;;;;;0.25;0.25;;;3.80;99.90;;;;;;4995067;28;20109;-74
2023/02/18 12:30:39;;;;;;;0.28;0.28;;;4.00;99.90;;;;;;4994760;28;20033;-74
2023/02/18 12:33:23;;;;;;;0.15;0.15;;;4.40;99.90;;;;;;4993572;28;20045;-74
2023/02/18 12:36:14;;;;;;;0.68;0.63;;;4.90;99.90;;;;;;4994928;28;20030;-74
2023/02/18 12:39:07;;;;;;;1.85;0.55;;;5.10;99.90;;;;;;4993472;28;20376;-74
2023/02/18 12:42:06;;;;;;;1.80;1.70;;;5.00;99.90;;;;;;4994625;28;20041;-74
2023/02/18 12:44:42;;;;;;;31.10;1.85;;;5.10;99.90;;;;;;4993331;28;20325;-74
2023/02/18 12:47:23;;;;;;;0.10;0.10;;;5.30;99.90;;;;;;4994574;28;20018;-75
2023/02/18 12:50:27;;;;;;;0.10;0.10;;;5.80;99.90;;;;;;4994734;28;20420;-75
2023/02/18 12:52:53;;;;;;;;;;;6.40;99.90;;;;;;4993790;28;20038;-75
2023/02/18 12:55:44;;;;;;;0.60;0.30;;;6.50;99.90;;;;;;4993098;28;19906;-75
2023/02/18 12:58:31;;;;;;;0.20;0.20;;;6.70;99.90;;;;;;4980231;28;20559;-75
2023/02/18 13:01:07;;;;;;;0.90;0.57;;;6.50;99.90;;;;;;4980799;28;20042;-74
2023/02/18 13:03:52;;;;;;;0.20;0.20;;;6.50;99.90;;;;;;4955659;29;20027;-74
2023/02/18 13:06:37;;;;;;;0.13;0.13;;;6.70;99.90;;;;;;4955708;29;20069;-75
2023/02/18 13:09:15;;;;;;;3.40;2.40;;;6.40;99.90;;;;;;4965632;28;20022;-75
2023/02/18 13:12:11;;;;;;;2.40;1.98;;;6.50;99.90;;;;;;4986226;28;20019;-76
2023/02/18 13:14:56;;;;;;;0.38;0.30;;;6.60;99.90;;;;;;4994517;28;20065;-75
2023/02/18 13:17:25;;;;;;;1.48;0.80;;;6.70;99.90;;;;;;4993891;28;20076;-76
2023/02/18 13:20:00;;;;;;;0.47;0.47;;;6.80;99.90;;;;;;5008625;28;20026;-75